sensor_id;sensor_type;location;lat;lon;timestamp;pressure;altitude;pressure_sealevel;temperature;humidity
65227;BME280;51805;49.012;12.104;2023-01-31T00:02:17;98270.75;;;21.90;45.78
65227;BME280;51805;49.012;12.104;2023-01-31T00:04:42;98269.16;;;21.89;45.75
65227;BME280;51805;49.012;12.104;2023-01-31T00:07:08;98278.34;;;21.88;45.82
65227;BME280;51805;49.012;12.104;2023-01-31T00:09:33;98290.25;;;21.87;45.83
65227;BME280;51805;49.012;12.104;2023-01-31T00:11:58;98287.81;;;21.91;45.72
65227;BME280;51805;49.012;12.104;2023-01-31T00:14:23;98288.91;;;21.90;45.53
65227;BME280;51805;49.012;12.104;2023-01-31T00:16:48;98287.53;;;21.87;45.76
65227;BME280;51805;49.012;12.104;2023-01-31T00:19:13;98281.59;;;21.85;45.75
65227;BME280;51805;49.012;12.104;2023-01-31T00:21:38;98285.09;;;21.86;45.74
65227;BME280;51805;49.012;12.104;2023-01-31T00:24:03;98290.50;;;21.86;45.67
65227;BME280;51805;49.012;12.104;2023-01-31T00:26:30;98281.88;;;21.84;45.80
65227;BME280;51805;49.012;12.104;2023-01-31T00:28:56;98278.88;;;21.80;45.85
65227;BME280;51805;49.012;12.104;2023-01-31T00:31:22;98283.19;;;21.81;45.77
65227;BME280;51805;49.012;12.104;2023-01-31T00:33:47;98285.09;;;21.81;45.75
65227;BME280;51805;49.012;12.104;2023-01-31T00:36:20;98294.00;;;21.81;45.60
65227;BME280;51805;49.012;12.104;2023-01-31T00:38:49;98289.13;;;21.78;45.67
65227;BME280;51805;49.012;12.104;2023-01-31T00:41:15;98289.13;;;21.78;45.83
65227;BME280;51805;49.012;12.104;2023-01-31T00:43:40;98289.13;;;21.78;45.47
65227;BME280;51805;49.012;12.104;2023-01-31T00:46:05;98285.38;;;21.79;45.62
65227;BME280;51805;49.012;12.104;2023-01-31T00:48:30;98285.88;;;21.76;45.89
65227;BME280;51805;49.012;12.104;2023-01-31T00:50:56;98294.00;;;21.76;45.81
65227;BME280;51805;49.012;12.104;2023-01-31T00:53:21;98290.72;;;21.74;45.81
65227;BME280;51805;49.012;12.104;2023-01-31T00:55:46;98296.97;;;21.75;45.77
65227;BME280;51805;49.012;12.104;2023-01-31T00:58:11;98282.63;;;21.74;45.70
65227;BME280;51805;49.012;12.104;2023-01-31T01:00:36;98292.63;;;21.74;45.62
65227;BME280;51805;49.012;12.104;2023-01-31T01:03:01;98289.34;;;21.72;45.60
65227;BME280;51805;49.012;12.104;2023-01-31T01:05:26;98292.88;;;21.72;45.70
65227;BME280;51805;49.012;12.104;2023-01-31T01:07:51;98290.16;;;21.72;45.77
65227;BME280;51805;49.012;12.104;2023-01-31T01:10:17;98297.47;;;21.72;45.74
65227;BME280;51805;49.012;12.104;2023-01-31T01:12:42;98299.38;;;21.71;45.77
65227;BME280;51805;49.012;12.104;2023-01-31T01:15:07;98298.81;;;21.69;45.56
65227;BME280;51805;49.012;12.104;2023-01-31T01:17:32;98298.81;;;21.69;45.73
65227;BME280;51805;49.012;12.104;2023-01-31T01:19:57;98298.81;;;21.69;45.46
65227;BME280;51805;49.012;12.104;2023-01-31T01:22:23;98307.47;;;21.66;45.82
65227;BME280;51805;49.012;12.104;2023-01-31T01:24:48;98305.84;;;21.65;45.76
65227;BME280;51805;49.012;12.104;2023-01-31T01:27:13;98307.72;;;21.65;45.82
65227;BME280;51805;49.012;12.104;2023-01-31T01:29:38;98310.16;;;21.61;45.88
65227;BME280;51805;49.012;12.104;2023-01-31T01:32:04;98319.63;;;21.64;45.67
65227;BME280;51805;49.012;12.104;2023-01-31T01:34:29;98314.75;;;21.61;45.91
65227;BME280;51805;49.012;12.104;2023-01-31T01:36:54;98315.28;;;21.63;45.77
65227;BME280;51805;49.012;12.104;2023-01-31T01:39:19;98320.16;;;21.61;45.89
65227;BME280;51805;49.012;12.104;2023-01-31T01:41:45;98318.53;;;21.60;45.69
65227;BME280;51805;49.012;12.104;2023-01-31T01:46:54;98314.47;;;21.57;45.85
65227;BME280;51805;49.012;12.104;2023-01-31T01:51:45;98316.91;;;21.59;45.83
65227;BME280;51805;49.012;12.104;2023-01-31T01:54:12;98316.91;;;21.59;45.66
65227;BME280;51805;49.012;12.104;2023-01-31T01:56:40;98311.22;;;21.55;45.80
65227;BME280;51805;49.012;12.104;2023-01-31T01:59:07;98306.88;;;21.54;45.67
65227;BME280;51805;49.012;12.104;2023-01-31T02:01:34;98313.91;;;21.55;45.70
65227;BME280;51805;49.012;12.104;2023-01-31T02:04:00;98316.63;;;21.55;45.87
65227;BME280;51805;49.012;12.104;2023-01-31T02:06:26;98323.38;;;21.53;45.84
65227;BME280;51805;49.012;12.104;2023-01-31T02:08:51;98323.38;;;21.53;45.71
65227;BME280;51805;49.012;12.104;2023-01-31T02:11:20;98324.69;;;21.50;45.70
65227;BME280;51805;49.012;12.104;2023-01-31T02:13:45;98320.09;;;21.51;45.63
65227;BME280;51805;49.012;12.104;2023-01-31T02:16:11;98320.09;;;21.51;45.82
65227;BME280;51805;49.012;12.104;2023-01-31T02:18:36;98319.28;;;21.50;45.82
65227;BME280;51805;49.012;12.104;2023-01-31T02:23:34;98326.88;;;21.48;45.82
65227;BME280;51805;49.012;12.104;2023-01-31T02:26:11;98329.56;;;21.48;45.75
65227;BME280;51805;49.012;12.104;2023-01-31T02:43:52;98353.88;;;21.43;46.22
65227;BME280;51805;49.012;12.104;2023-01-31T02:46:17;98360.91;;;21.44;46.38
65227;BME280;51805;49.012;12.104;2023-01-31T02:51:13;98367.41;;;21.43;46.47
65227;BME280;51805;49.012;12.104;2023-01-31T02:53:43;98369.84;;;21.44;46.39
65227;BME280;51805;49.012;12.104;2023-01-31T02:56:10;98379.03;;;21.43;46.54
65227;BME280;51805;49.012;12.104;2023-01-31T02:58:38;98379.84;;;21.44;46.31
65227;BME280;51805;49.012;12.104;2023-01-31T03:01:04;98379.84;;;21.44;46.20
65227;BME280;51805;49.012;12.104;2023-01-31T03:03:34;98374.94;;;21.41;46.64
65227;BME280;51805;49.012;12.104;2023-01-31T03:08:41;98378.75;;;21.40;46.44
65227;BME280;51805;49.012;12.104;2023-01-31T03:11:08;98378.19;;;21.38;46.52
65227;BME280;51805;49.012;12.104;2023-01-31T03:18:25;98384.16;;;21.40;46.61
65227;BME280;51805;49.012;12.104;2023-01-31T03:20:55;98396.84;;;21.39;46.43
65227;BME280;51805;49.012;12.104;2023-01-31T03:23:23;98395.50;;;21.37;46.63
65227;BME280;51805;49.012;12.104;2023-01-31T03:25:49;98398.72;;;21.34;46.56
65227;BME280;51805;49.012;12.104;2023-01-31T03:28:16;98386.81;;;21.35;46.75
65227;BME280;51805;49.012;12.104;2023-01-31T03:30:45;98386.81;;;21.35;46.58
65227;BME280;51805;49.012;12.104;2023-01-31T03:33:14;98396.00;;;21.34;46.52
65227;BME280;51805;49.012;12.104;2023-01-31T03:35:41;98404.38;;;21.32;46.75
65227;BME280;51805;49.012;12.104;2023-01-31T03:38:14;98406.25;;;21.32;46.71
65227;BME280;51805;49.012;12.104;2023-01-31T03:40:42;98421.13;;;21.29;46.87
65227;BME280;51805;49.012;12.104;2023-01-31T03:43:21;98418.16;;;21.31;46.92
65227;BME280;51805;49.012;12.104;2023-01-31T03:45:58;98419.47;;;21.28;46.76
65227;BME280;51805;49.012;12.104;2023-01-31T03:48:26;98412.44;;;21.27;46.76
65227;BME280;51805;49.012;12.104;2023-01-31T03:50:55;98410.00;;;21.26;46.74
65227;BME280;51805;49.012;12.104;2023-01-31T03:53:23;98420.00;;;21.25;46.77
65227;BME280;51805;49.012;12.104;2023-01-31T03:55:58;98423.78;;;21.24;46.73
65227;BME280;51805;49.012;12.104;2023-01-31T03:58:26;98422.97;;;21.24;46.80
65227;BME280;51805;49.012;12.104;2023-01-31T04:00:52;98428.38;;;21.24;46.87
65227;BME280;51805;49.012;12.104;2023-01-31T04:05:46;98432.16;;;21.23;46.76
65227;BME280;51805;49.012;12.104;2023-01-31T04:08:12;98435.69;;;21.23;46.88
65227;BME280;51805;49.012;12.104;2023-01-31T04:10:37;98430.53;;;21.22;46.81
65227;BME280;51805;49.012;12.104;2023-01-31T04:13:02;98434.84;;;21.23;46.93
65227;BME280;51805;49.012;12.104;2023-01-31T04:15:27;98442.41;;;21.21;46.95
65227;BME280;51805;49.012;12.104;2023-01-31T04:17:52;98454.31;;;21.20;46.84
65227;BME280;51805;49.012;12.104;2023-01-31T04:20:18;98452.69;;;21.19;46.90
65227;BME280;51805;49.012;12.104;2023-01-31T04:22:43;98452.69;;;21.19;46.90
65227;BME280;51805;49.012;12.104;2023-01-31T04:25:08;98461.84;;;21.18;47.07
65227;BME280;51805;49.012;12.104;2023-01-31T04:27:34;98465.06;;;21.15;47.09
65227;BME280;51805;49.012;12.104;2023-01-31T04:29:59;98462.34;;;21.15;47.00
65227;BME280;51805;49.012;12.104;2023-01-31T04:32:24;98459.41;;;21.16;46.96
65227;BME280;51805;49.012;12.104;2023-01-31T04:34:49;98468.84;;;21.14;47.14
65227;BME280;51805;49.012;12.104;2023-01-31T04:37:14;98467.19;;;21.13;47.11
65227;BME280;51805;49.012;12.104;2023-01-31T04:39:40;98472.59;;;21.13;47.09
65227;BME280;51805;49.012;12.104;2023-01-31T04:42:07;98468.84;;;21.14;47.05
65227;BME280;51805;49.012;12.104;2023-01-31T04:44:32;98473.69;;;21.12;47.00
65227;BME280;51805;49.012;12.104;2023-01-31T04:46:57;98478.25;;;21.11;46.95
65227;BME280;51805;49.012;12.104;2023-01-31T04:49:23;98479.59;;;21.09;46.93
65227;BME280;51805;49.012;12.104;2023-01-31T04:51:48;98479.09;;;21.12;46.94
65227;BME280;51805;49.012;12.104;2023-01-31T04:54:13;98475.81;;;21.10;46.98
65227;BME280;51805;49.012;12.104;2023-01-31T04:56:39;98478.00;;;21.08;46.95
65227;BME280;51805;49.012;12.104;2023-01-31T04:59:04;98486.88;;;21.08;47.06
65227;BME280;51805;49.012;12.104;2023-01-31T05:01:29;98476.59;;;21.05;46.88
65227;BME280;51805;49.012;12.104;2023-01-31T05:03:54;98477.41;;;21.06;46.82
65227;BME280;51805;49.012;12.104;2023-01-31T05:06:20;98474.72;;;21.06;46.92
65227;BME280;51805;49.012;12.104;2023-01-31T05:08:45;98473.91;;;21.05;46.94
65227;BME280;51805;49.012;12.104;2023-01-31T05:11:10;98480.13;;;21.06;46.81
65227;BME280;51805;49.012;12.104;2023-01-31T05:13:35;98473.09;;;21.05;47.03
65227;BME280;51805;49.012;12.104;2023-01-31T05:16:00;98475.22;;;21.03;47.03
65227;BME280;51805;49.012;12.104;2023-01-31T05:18:26;98476.84;;;21.04;46.97
65227;BME280;51805;49.012;12.104;2023-01-31T05:20:51;98471.97;;;21.01;46.81
65227;BME280;51805;49.012;12.104;2023-01-31T05:23:16;98477.38;;;21.01;46.85
65227;BME280;51805;49.012;12.104;2023-01-31T05:25:42;98475.22;;;21.03;46.79
65227;BME280;51805;49.012;12.104;2023-01-31T05:28:07;98479.03;;;21.02;46.77
65227;BME280;51805;49.012;12.104;2023-01-31T05:30:32;98479.03;;;21.02;46.87
65227;BME280;51805;49.012;12.104;2023-01-31T05:32:58;98478.19;;;21.01;46.74
65227;BME280;51805;49.012;12.104;2023-01-31T05:35:23;98471.97;;;21.01;46.88
65227;BME280;51805;49.012;12.104;2023-01-31T05:37:48;98476.31;;;21.02;46.69
65227;BME280;51805;49.012;12.104;2023-01-31T05:40:14;98478.75;;;21.03;46.84
65227;BME280;51805;49.012;12.104;2023-01-31T05:42:40;98472.00;;;21.06;46.66
65227;BME280;51805;49.012;12.104;2023-01-31T05:45:05;98459.34;;;21.06;46.65
65227;BME280;51805;49.012;12.104;2023-01-31T05:47:31;98460.13;;;21.07;46.54
65227;BME280;51805;49.012;12.104;2023-01-31T05:49:56;98457.16;;;21.08;46.41
65227;BME280;51805;49.012;12.104;2023-01-31T05:52:21;98453.66;;;21.08;46.54
65227;BME280;51805;49.012;12.104;2023-01-31T05:54:46;98475.81;;;21.10;46.57
65227;BME280;51805;49.012;12.104;2023-01-31T05:57:11;98463.97;;;21.11;46.65
65227;BME280;51805;49.012;12.104;2023-01-31T05:59:36;98466.41;;;21.12;46.37
65227;BME280;51805;49.012;12.104;2023-01-31T06:02:02;98471.56;;;21.14;46.37
65227;BME280;51805;49.012;12.104;2023-01-31T06:04:27;98471.56;;;21.14;46.47
65227;BME280;51805;49.012;12.104;2023-01-31T06:06:52;98481.78;;;21.12;46.58
65227;BME280;51805;49.012;12.104;2023-01-31T06:09:17;98481.53;;;21.13;46.41
65227;BME280;51805;49.012;12.104;2023-01-31T06:11:42;98485.63;;;21.16;46.40
65227;BME280;51805;49.012;12.104;2023-01-31T06:14:08;98486.44;;;21.16;46.34
65227;BME280;51805;49.012;12.104;2023-01-31T06:16:33;98497.03;;;21.23;46.12
65227;BME280;51805;49.012;12.104;2023-01-31T06:18:58;98483.09;;;21.41;45.98
65227;BME280;51805;49.012;12.104;2023-01-31T06:21:23;98484.78;;;21.47;45.70
65227;BME280;51805;49.012;12.104;2023-01-31T06:23:48;98484.25;;;21.50;45.77
65227;BME280;51805;49.012;12.104;2023-01-31T06:26:14;98491.09;;;21.58;45.49
65227;BME280;51805;49.012;12.104;2023-01-31T06:28:39;98501.91;;;21.63;45.56
65227;BME280;51805;49.012;12.104;2023-01-31T06:31:07;98503.56;;;21.64;45.46
65227;BME280;51805;49.012;12.104;2023-01-31T06:33:33;98510.34;;;21.66;45.50
65227;BME280;51805;49.012;12.104;2023-01-31T06:35:58;98519.56;;;21.70;45.33
65227;BME280;51805;49.012;12.104;2023-01-31T06:38:23;98516.00;;;21.65;45.78
65227;BME280;51805;49.012;12.104;2023-01-31T06:40:48;98511.84;;;21.52;45.99
65227;BME280;51805;49.012;12.104;2023-01-31T06:43:14;98512.34;;;21.44;46.11
65227;BME280;51805;49.012;12.104;2023-01-31T06:45:41;98509.63;;;21.44;46.12
65227;BME280;51805;49.012;12.104;2023-01-31T06:48:06;98515.09;;;21.49;46.03
65227;BME280;51805;49.012;12.104;2023-01-31T06:50:31;98518.88;;;21.48;46.43
65227;BME280;51805;49.012;12.104;2023-01-31T06:52:56;98514.53;;;21.47;48.19
65227;BME280;51805;49.012;12.104;2023-01-31T06:55:21;98519.41;;;21.50;47.78
65227;BME280;51805;49.012;12.104;2023-01-31T06:57:47;98513.72;;;21.52;47.80
65227;BME280;51805;49.012;12.104;2023-01-31T07:00:12;98525.13;;;21.54;47.80
65227;BME280;51805;49.012;12.104;2023-01-31T07:02:38;98528.38;;;21.56;47.52
65227;BME280;51805;49.012;12.104;2023-01-31T07:05:03;98533.53;;;21.57;47.32
65227;BME280;51805;49.012;12.104;2023-01-31T07:07:28;98536.28;;;21.62;47.13
65227;BME280;51805;49.012;12.104;2023-01-31T07:09:53;98544.94;;;21.64;46.91
65227;BME280;51805;49.012;12.104;2023-01-31T07:12:18;98548.72;;;21.63;47.06
65227;BME280;51805;49.012;12.104;2023-01-31T07:14:43;98547.38;;;21.66;46.76
65227;BME280;51805;49.012;12.104;2023-01-31T07:17:09;98543.38;;;21.68;46.79
65227;BME280;51805;49.012;12.104;2023-01-31T07:19:34;98550.13;;;21.71;46.68
65227;BME280;51805;49.012;12.104;2023-01-31T07:21:59;98552.28;;;21.69;46.88
65227;BME280;51805;49.012;12.104;2023-01-31T07:24:24;98548.25;;;21.71;46.56
65227;BME280;51805;49.012;12.104;2023-01-31T07:26:50;98547.69;;;21.69;46.39
65227;BME280;51805;49.012;12.104;2023-01-31T07:29:16;98545.03;;;21.74;46.43
65227;BME280;51805;49.012;12.104;2023-01-31T07:31:41;98554.53;;;21.77;46.29
65227;BME280;51805;49.012;12.104;2023-01-31T07:34:06;98549.69;;;21.79;46.06
65227;BME280;51805;49.012;12.104;2023-01-31T07:36:31;98543.19;;;21.80;46.10
65227;BME280;51805;49.012;12.104;2023-01-31T07:38:56;98546.16;;;21.78;46.09
65227;BME280;51805;49.012;12.104;2023-01-31T07:41:22;98551.31;;;21.80;46.21
65227;BME280;51805;49.012;12.104;2023-01-31T07:43:47;98548.34;;;21.81;46.00
65227;BME280;51805;49.012;12.104;2023-01-31T07:46:12;98544.59;;;21.82;45.98
65227;BME280;51805;49.012;12.104;2023-01-31T07:48:37;98544.84;;;21.81;45.86
65227;BME280;51805;49.012;12.104;2023-01-31T07:51:02;98549.16;;;21.82;45.89
65227;BME280;51805;49.012;12.104;2023-01-31T07:53:28;98545.13;;;21.84;45.98
65227;BME280;51805;49.012;12.104;2023-01-31T07:55:54;98554.88;;;21.85;45.86
65227;BME280;51805;49.012;12.104;2023-01-31T07:58:19;98551.09;;;21.86;45.87
65227;BME280;51805;49.012;12.104;2023-01-31T08:00:44;98548.94;;;21.88;45.79
65227;BME280;51805;49.012;12.104;2023-01-31T08:03:16;98547.28;;;21.87;45.43
65227;BME280;51805;49.012;12.104;2023-01-31T08:05:46;98544.59;;;21.87;45.76
65227;BME280;51805;49.012;12.104;2023-01-31T08:08:11;98546.78;;;21.90;45.60
65227;BME280;51805;49.012;12.104;2023-01-31T08:10:37;98548.44;;;21.91;45.56
65227;BME280;51805;49.012;12.104;2023-01-31T08:13:02;98544.63;;;21.92;45.49
65227;BME280;51805;49.012;12.104;2023-01-31T08:15:27;98549.78;;;21.94;45.51
65227;BME280;51805;49.012;12.104;2023-01-31T08:17:53;98542.50;;;21.94;45.42
65227;BME280;51805;49.012;12.104;2023-01-31T08:20:18;98544.69;;;21.97;45.40
65227;BME280;51805;49.012;12.104;2023-01-31T08:22:43;98554.41;;;21.98;45.33
65227;BME280;51805;49.012;12.104;2023-01-31T08:25:08;98560.66;;;21.99;45.29
65227;BME280;51805;49.012;12.104;2023-01-31T08:27:33;98561.47;;;21.99;45.49
65227;BME280;51805;49.012;12.104;2023-01-31T08:29:58;98560.94;;;22.02;45.32
65227;BME280;51805;49.012;12.104;2023-01-31T08:32:23;98576.41;;;22.07;45.28
65227;BME280;51805;49.012;12.104;2023-01-31T08:34:48;98576.66;;;22.05;45.11
65227;BME280;51805;49.012;12.104;2023-01-31T08:37:14;98579.38;;;22.05;45.33
65227;BME280;51805;49.012;12.104;2023-01-31T08:39:39;98572.63;;;22.08;45.13
65227;BME280;51805;49.012;12.104;2023-01-31T08:42:04;98575.31;;;22.08;45.29
65227;BME280;51805;49.012;12.104;2023-01-31T08:44:29;98572.34;;;22.09;45.08
65227;BME280;51805;49.012;12.104;2023-01-31T08:46:54;98572.34;;;22.09;44.97
65227;BME280;51805;49.012;12.104;2023-01-31T08:49:19;98572.09;;;22.11;45.22
65227;BME280;51805;49.012;12.104;2023-01-31T08:51:44;98569.69;;;22.14;44.93
65227;BME280;51805;49.012;12.104;2023-01-31T08:54:09;98580.22;;;22.11;45.16
65227;BME280;51805;49.012;12.104;2023-01-31T08:56:35;98587.53;;;22.15;44.96
65227;BME280;51805;49.012;12.104;2023-01-31T08:59:00;98585.94;;;22.14;45.00
65227;BME280;51805;49.012;12.104;2023-01-31T09:01:25;98584.84;;;22.15;44.97
65227;BME280;51805;49.012;12.104;2023-01-31T09:03:51;98591.88;;;22.16;44.93
65227;BME280;51805;49.012;12.104;2023-01-31T09:06:17;98589.16;;;22.16;44.84
65227;BME280;51805;49.012;12.104;2023-01-31T09:08:42;98591.34;;;22.14;45.01
65227;BME280;51805;49.012;12.104;2023-01-31T09:11:08;98602.16;;;22.14;44.96
65227;BME280;51805;49.012;12.104;2023-01-31T09:13:33;98592.97;;;22.15;44.78
65227;BME280;51805;49.012;12.104;2023-01-31T09:18:27;98590.28;;;22.20;44.77
65227;BME280;51805;49.012;12.104;2023-01-31T09:20:52;98585.41;;;22.17;44.81
65227;BME280;51805;49.012;12.104;2023-01-31T09:23:17;98585.97;;;22.19;44.71
65227;BME280;51805;49.012;12.104;2023-01-31T09:25:42;98591.91;;;22.21;44.82
65227;BME280;51805;49.012;12.104;2023-01-31T09:28:07;98584.88;;;22.20;44.82
65227;BME280;51805;49.012;12.104;2023-01-31T09:30:32;98591.13;;;22.21;44.79
65227;BME280;51805;49.012;12.104;2023-01-31T09:32:58;98589.19;;;22.21;44.72
65227;BME280;51805;49.012;12.104;2023-01-31T09:35:23;98578.66;;;22.25;44.51
65227;BME280;51805;49.012;12.104;2023-01-31T09:37:48;98574.06;;;22.25;44.66
65227;BME280;51805;49.012;12.104;2023-01-31T09:40:15;98578.66;;;22.25;44.53
65227;BME280;51805;49.012;12.104;2023-01-31T09:42:45;98577.59;;;22.26;44.54
65227;BME280;51805;49.012;12.104;2023-01-31T09:45:11;98578.41;;;22.26;44.46
65227;BME280;51805;49.012;12.104;2023-01-31T09:47:41;98572.47;;;22.29;44.56
65227;BME280;51805;49.012;12.104;2023-01-31T09:52:36;98584.38;;;22.28;44.64
65227;BME280;51805;49.012;12.104;2023-01-31T09:55:01;98582.22;;;22.30;44.47
65227;BME280;51805;49.012;12.104;2023-01-31T10:05:42;98581.94;;;22.32;44.53
65227;BME280;51805;49.012;12.104;2023-01-31T10:10:54;98583.34;;;22.34;44.42
65227;BME280;51805;49.012;12.104;2023-01-31T10:13:23;98585.22;;;22.34;44.47
65227;BME280;51805;49.012;12.104;2023-01-31T10:15:52;98586.84;;;22.35;44.47
65227;BME280;51805;49.012;12.104;2023-01-31T10:23:15;98578.44;;;22.36;44.46
65227;BME280;51805;49.012;12.104;2023-01-31T10:28:21;98567.34;;;22.38;44.40
65227;BME280;51805;49.012;12.104;2023-01-31T10:30:55;98576.31;;;22.38;44.26
65227;BME280;51805;49.012;12.104;2023-01-31T10:35:52;98564.41;;;22.39;44.34
65227;BME280;51805;49.012;12.104;2023-01-31T10:38:30;98562.50;;;22.40;44.25
65227;BME280;51805;49.012;12.104;2023-01-31T10:41:13;98556.28;;;22.39;44.38
65227;BME280;51805;49.012;12.104;2023-01-31T10:43:50;98557.91;;;22.40;44.26
65227;BME280;51805;49.012;12.104;2023-01-31T10:46:17;98549.78;;;22.40;44.24
65227;BME280;51805;49.012;12.104;2023-01-31T10:48:43;98545.72;;;22.43;44.27
65227;BME280;51805;49.012;12.104;2023-01-31T10:51:16;98534.09;;;22.42;44.27
65227;BME280;51805;49.012;12.104;2023-01-31T10:56:33;98524.03;;;22.43;44.24
65227;BME280;51805;49.012;12.104;2023-01-31T10:59:00;98516.47;;;22.45;44.14
65227;BME280;51805;49.012;12.104;2023-01-31T11:01:26;98517.31;;;22.45;44.31
65227;BME280;51805;49.012;12.104;2023-01-31T11:03:52;98511.06;;;22.45;44.27
65227;BME280;51805;49.012;12.104;2023-01-31T11:06:18;98500.22;;;22.45;44.14
65227;BME280;51805;49.012;12.104;2023-01-31T11:08:47;98495.63;;;22.45;44.13
65227;BME280;51805;49.012;12.104;2023-01-31T11:11:14;98491.31;;;22.49;44.12
65227;BME280;51805;49.012;12.104;2023-01-31T11:13:40;98495.91;;;22.49;44.19
65227;BME280;51805;49.012;12.104;2023-01-31T11:16:08;98487.50;;;22.50;44.17
65227;BME280;51805;49.012;12.104;2023-01-31T11:18:36;98487.50;;;22.50;44.00
65227;BME280;51805;49.012;12.104;2023-01-31T11:21:02;98484.78;;;22.50;44.14
65227;BME280;51805;49.012;12.104;2023-01-31T11:23:28;98483.78;;;22.51;44.08
65227;BME280;51805;49.012;12.104;2023-01-31T11:25:54;98485.88;;;22.49;44.06
65227;BME280;51805;49.012;12.104;2023-01-31T11:28:21;98480.47;;;22.49;44.06
65227;BME280;51805;49.012;12.104;2023-01-31T11:30:47;98468.53;;;22.50;43.99
65227;BME280;51805;49.012;12.104;2023-01-31T11:35:58;98467.50;;;22.51;44.05
65227;BME280;51805;49.012;12.104;2023-01-31T11:38:23;98461.56;;;22.54;44.10
65227;BME280;51805;49.012;12.104;2023-01-31T11:40:49;98448.81;;;22.55;43.99
65227;BME280;51805;49.012;12.104;2023-01-31T11:45:45;98440.16;;;22.53;44.12
65227;BME280;51805;49.012;12.104;2023-01-31T11:48:18;98440.69;;;22.55;44.09
65227;BME280;51805;49.012;12.104;2023-01-31T11:50:45;98433.38;;;22.55;43.97
65227;BME280;51805;49.012;12.104;2023-01-31T11:55:41;98419.84;;;22.55;44.07
65227;BME280;51805;49.012;12.104;2023-01-31T11:58:20;98423.63;;;22.54;44.04
65227;BME280;51805;49.012;12.104;2023-01-31T12:00:53;98411.44;;;22.57;44.15
65227;BME280;51805;49.012;12.104;2023-01-31T12:03:20;98419.56;;;22.57;43.83
65227;BME280;51805;49.012;12.104;2023-01-31T12:05:48;98423.09;;;22.57;44.08
65227;BME280;51805;49.012;12.104;2023-01-31T12:10:51;98421.44;;;22.56;44.05
65227;BME280;51805;49.012;12.104;2023-01-31T12:13:17;98419.31;;;22.58;43.99
65227;BME280;51805;49.012;12.104;2023-01-31T12:15:51;98415.50;;;22.59;44.00
65227;BME280;51805;49.012;12.104;2023-01-31T12:18:19;98425.25;;;22.55;43.97
65227;BME280;51805;49.012;12.104;2023-01-31T12:20:51;98414.97;;;22.57;44.08
65227;BME280;51805;49.012;12.104;2023-01-31T12:25:49;98416.59;;;22.58;44.06
65227;BME280;51805;49.012;12.104;2023-01-31T12:28:32;98404.41;;;22.56;44.01
65227;BME280;51805;49.012;12.104;2023-01-31T12:31:24;98403.59;;;22.55;43.96
65227;BME280;51805;49.012;12.104;2023-01-31T12:33:54;98389.78;;;22.57;43.94
65227;BME280;51805;49.012;12.104;2023-01-31T12:41:20;98375.97;;;22.58;43.85
65227;BME280;51805;49.012;12.104;2023-01-31T12:47:19;98359.69;;;22.58;43.96
65227;BME280;51805;49.012;12.104;2023-01-31T12:57:23;98353.75;;;22.61;43.87
65227;BME280;51805;49.012;12.104;2023-01-31T13:00:57;98348.31;;;22.61;43.91
65227;BME280;51805;49.012;12.104;2023-01-31T13:05:39;98346.72;;;22.60;43.93
65227;BME280;51805;49.012;12.104;2023-01-31T13:13:25;98339.13;;;22.62;43.97
65227;BME280;51805;49.012;12.104;2023-01-31T13:16:07;98336.94;;;22.64;43.81
65227;BME280;51805;49.012;12.104;2023-01-31T13:18:35;98328.28;;;22.62;43.80
65227;BME280;51805;49.012;12.104;2023-01-31T13:21:02;98332.06;;;22.61;43.92
65227;BME280;51805;49.012;12.104;2023-01-31T13:23:30;98338.03;;;22.63;43.93
65227;BME280;51805;49.012;12.104;2023-01-31T13:26:07;98331.00;;;22.62;43.90
65227;BME280;51805;49.012;12.104;2023-01-31T13:28:36;98334.78;;;22.61;44.41
65227;BME280;51805;49.012;12.104;2023-01-31T13:31:04;98321.22;;;22.61;44.95
65227;BME280;51805;49.012;12.104;2023-01-31T13:33:36;98323.38;;;22.39;47.29
65227;BME280;51805;49.012;12.104;2023-01-31T13:38:36;98326.53;;;22.01;48.71
65227;BME280;51805;49.012;12.104;2023-01-31T13:41:02;98331.41;;;21.94;49.34
65227;BME280;51805;49.012;12.104;2023-01-31T13:43:28;98328.16;;;21.92;49.33
65227;BME280;51805;49.012;12.104;2023-01-31T13:45:57;98335.69;;;21.90;49.94
65227;BME280;51805;49.012;12.104;2023-01-31T13:50:55;98354.66;;;21.85;50.44
65227;BME280;51805;49.012;12.104;2023-01-31T13:53:33;98343.53;;;21.82;50.96
65227;BME280;51805;49.012;12.104;2023-01-31T13:56:01;98341.09;;;21.80;51.38
65227;BME280;51805;49.012;12.104;2023-01-31T14:01:00;98341.63;;;21.77;51.34
65227;BME280;51805;49.012;12.104;2023-01-31T14:03:27;98324.31;;;21.78;51.63
65227;BME280;51805;49.012;12.104;2023-01-31T14:05:55;98328.66;;;21.79;51.65
65227;BME280;51805;49.012;12.104;2023-01-31T14:11:01;98316.47;;;21.77;52.28
65227;BME280;51805;49.012;12.104;2023-01-31T14:13:36;98308.03;;;21.73;52.27
65227;BME280;51805;49.012;12.104;2023-01-31T14:16:01;98308.59;;;21.75;52.33
65227;BME280;51805;49.012;12.104;2023-01-31T14:18:37;98311.31;;;21.75;52.62
65227;BME280;51805;49.012;12.104;2023-01-31T14:24:00;98312.94;;;21.76;53.02
65227;BME280;51805;49.012;12.104;2023-01-31T14:26:32;98315.91;;;21.75;53.15
65227;BME280;51805;49.012;12.104;2023-01-31T14:28:58;98334.84;;;21.75;53.22
65227;BME280;51805;49.012;12.104;2023-01-31T14:31:24;98321.03;;;21.76;53.28
65227;BME280;51805;49.012;12.104;2023-01-31T14:33:50;98321.31;;;21.75;53.61
65227;BME280;51805;49.012;12.104;2023-01-31T14:36:35;98320.25;;;21.76;53.72
65227;BME280;51805;49.012;12.104;2023-01-31T14:39:26;98325.91;;;21.74;53.52
65227;BME280;51805;49.012;12.104;2023-01-31T14:42:12;98313.44;;;21.73;53.52
65227;BME280;51805;49.012;12.104;2023-01-31T14:47:24;98306.97;;;21.74;54.09